createdAt,value
2019-04-01T00:00:32.717Z,99174.17
2019-04-01T00:02:36.459Z,99176.72
2019-04-01T00:04:41.309Z,99174.12
2019-04-01T00:06:45.099Z,99171.09
2019-04-01T00:08:51.979Z,99162.34
2019-04-01T00:10:56.783Z,99170.92
2019-04-01T00:13:00.598Z,99169.19
2019-04-01T00:15:04.582Z,99166.83
2019-04-01T00:17:08.418Z,99164.78
2019-04-01T00:19:14.260Z,99167.92
2019-04-01T00:21:19.091Z,99169.20
2019-04-01T00:23:22.886Z,99160.04
2019-04-01T00:25:26.699Z,99170.20
2019-04-01T00:27:30.496Z,99170.03
2019-04-01T00:29:34.225Z,99163.67
2019-04-01T00:31:38.000Z,99166.01
2019-04-01T00:33:41.810Z,99163.73
2019-04-01T00:35:45.602Z,99162.48
2019-04-01T00:37:51.361Z,99162.71
2019-04-01T00:39:57.117Z,99163.45
2019-04-01T00:42:10.039Z,99157.63
2019-04-01T00:44:14.867Z,99158.57
2019-04-01T00:46:18.646Z,99160.58
2019-04-01T00:48:23.484Z,99152.87
2019-04-01T00:50:27.375Z,99156.56
2019-04-01T00:52:31.253Z,99156.15
2019-04-01T00:54:38.108Z,99155.77
2019-04-01T00:56:41.860Z,99157.55
2019-04-01T00:58:45.661Z,99154.66
2019-04-01T01:00:50.490Z,99148.44
2019-04-01T01:02:56.267Z,99149.89
2019-04-01T01:05:00.096Z,99153.77
2019-04-01T01:07:04.140Z,99145.67
2019-04-01T01:09:09.052Z,99143.30
2019-04-01T01:11:12.970Z,99148.10
2019-04-01T01:13:19.869Z,99150.72
2019-04-01T01:15:23.678Z,99152.49
2019-04-01T01:17:27.470Z,99152.40
2019-04-01T01:19:31.477Z,99143.04
2019-04-01T01:21:36.676Z,99144.20
2019-04-01T01:23:40.520Z,99146.72
2019-04-01T01:25:52.109Z,99145.78
2019-04-01T01:28:01.134Z,99141.81
2019-04-01T01:30:08.783Z,99133.09
2019-04-01T01:32:12.626Z,99135.61
2019-04-01T01:34:22.579Z,99137.70
2019-04-01T01:36:26.385Z,99139.37
2019-04-01T01:38:32.222Z,99134.89
2019-04-01T01:40:36.084Z,99137.62
2019-04-01T01:42:40.859Z,99138.03
2019-04-01T01:44:46.882Z,99130.65
2019-04-01T01:46:51.634Z,99131.68
2019-04-01T01:48:55.506Z,99133.95
2019-04-01T01:50:59.362Z,99134.92
2019-04-01T01:53:03.146Z,99135.11
2019-04-01T01:55:07.030Z,99132.84
2019-04-01T01:57:16.703Z,99135.13
2019-04-01T01:59:21.595Z,99134.19
2019-04-01T02:01:27.564Z,99132.95
2019-04-01T02:03:31.366Z,99134.48
2019-04-01T02:05:42.135Z,99123.78
2019-04-01T02:07:49.022Z,99133.66
2019-04-01T02:09:56.923Z,99129.10
2019-04-01T02:12:02.144Z,99127.54
2019-04-01T02:14:06.030Z,99124.73
2019-04-01T02:16:09.867Z,99123.97
2019-04-01T02:18:13.946Z,99127.27
2019-04-01T02:20:17.795Z,99125.09
2019-04-01T02:22:21.583Z,99128.20
2019-04-01T02:24:27.332Z,99126.95
2019-04-01T02:26:32.164Z,99124.03
2019-04-01T02:28:36.993Z,99127.25
2019-04-01T02:30:44.005Z,99124.44
2019-04-01T02:32:47.765Z,99125.69
2019-04-01T02:34:52.604Z,99128.61
2019-04-01T02:36:57.414Z,99122.55
2019-04-01T02:39:04.773Z,99122.88
2019-04-01T02:41:11.691Z,99123.38
2019-04-01T02:43:15.483Z,99119.95
2019-04-01T02:45:21.330Z,99119.73
2019-04-01T02:47:25.144Z,99116.30
2019-04-01T02:49:29.758Z,99118.56
2019-04-01T02:51:33.589Z,99115.13
2019-04-01T02:53:37.383Z,99118.95
2019-04-01T02:55:45.368Z,99111.47
2019-04-01T02:57:49.162Z,99117.78
2019-04-01T02:59:52.968Z,99113.62
2019-04-01T03:01:56.779Z,99121.72
2019-04-01T03:04:02.555Z,99115.88
2019-04-01T03:06:06.339Z,99113.91
2019-04-01T03:08:11.172Z,99117.84
2019-04-01T03:10:16.065Z,99121.60
2019-04-01T03:12:19.904Z,99124.19
2019-04-01T03:14:25.654Z,99123.75
2019-04-01T03:16:29.435Z,99125.61
2019-04-01T03:18:33.272Z,99118.23
2019-04-01T03:20:38.062Z,99118.95
2019-04-01T03:22:41.935Z,99126.73
2019-04-01T03:24:45.777Z,99125.59
2019-04-01T03:26:50.618Z,99116.02
2019-04-01T03:28:55.454Z,99123.28
2019-04-01T03:31:01.265Z,99121.70
2019-04-01T03:33:11.017Z,99133.74
2019-04-01T03:35:15.288Z,99123.04
2019-04-01T03:37:19.044Z,99125.92
2019-04-01T03:39:22.913Z,99129.73
2019-04-01T03:41:27.676Z,99126.41
2019-04-01T03:43:32.501Z,99129.83
2019-04-01T03:45:38.253Z,99127.31
2019-04-01T03:47:42.040Z,99130.95
2019-04-01T03:49:45.864Z,99128.97
2019-04-01T03:51:49.656Z,99125.49
2019-04-01T03:53:53.467Z,99130.77
2019-04-01T03:56:00.424Z,99128.67
2019-04-01T03:58:04.306Z,99128.88
2019-04-01T04:00:08.470Z,99126.91
2019-04-01T04:02:12.399Z,99131.97
2019-04-01T04:04:16.214Z,99134.67
2019-04-01T04:06:20.056Z,99122.73
2019-04-01T04:08:23.858Z,99129.55
2019-04-01T04:10:27.674Z,99129.12
2019-04-01T04:12:31.486Z,99127.32
2019-04-01T04:14:37.207Z,99126.69
2019-04-01T04:16:41.028Z,99127.92
2019-04-01T04:18:44.827Z,99129.98
2019-04-01T04:20:49.739Z,99130.16
2019-04-01T04:22:53.551Z,99131.39
2019-04-01T04:24:59.298Z,99130.43
2019-04-01T04:27:03.122Z,99125.96
2019-04-01T04:29:12.957Z,99129.25
2019-04-01T04:31:17.802Z,99130.15
2019-04-01T04:33:21.549Z,99129.52
2019-04-01T04:35:27.328Z,99133.44
2019-04-01T04:37:31.144Z,99131.33
2019-04-01T04:39:34.942Z,99137.53
2019-04-01T04:41:38.741Z,99133.19
2019-04-01T04:43:42.539Z,99134.20
2019-04-01T04:45:47.363Z,99135.94
2019-04-01T04:47:51.183Z,99133.23
2019-04-01T04:49:54.969Z,99133.66
2019-04-01T04:52:00.726Z,99131.01
2019-04-01T04:54:04.704Z,99131.72
2019-04-01T04:56:15.290Z,99134.30
2019-04-01T04:58:21.034Z,99131.14
2019-04-01T05:00:24.839Z,99137.58
2019-04-01T05:02:28.648Z,99135.56
2019-04-01T05:04:32.436Z,99141.28
2019-04-01T05:06:36.330Z,99140.45
2019-04-01T05:08:41.077Z,99137.58
2019-04-01T05:10:44.886Z,99138.92
2019-04-01T05:12:48.694Z,99144.62
2019-04-01T05:14:53.512Z,99140.58
2019-04-01T05:16:59.263Z,99140.40
2019-04-01T05:19:04.154Z,99144.36
2019-04-01T05:21:08.214Z,99146.80
2019-04-01T05:23:12.380Z,99147.77
2019-04-01T05:25:18.149Z,99147.69
2019-04-01T05:27:25.656Z,99150.64
2019-04-01T05:29:31.282Z,99149.88
2019-04-01T05:31:35.769Z,99154.16
2019-04-01T05:33:54.799Z,99156.06
2019-04-01T05:35:48.817Z,99161.70
2019-04-01T05:37:52.810Z,99169.66
2019-04-01T05:39:57.881Z,99156.86
2019-04-01T05:42:03.145Z,99152.84
2019-04-01T05:44:07.189Z,99153.72
2019-04-01T05:46:13.108Z,99161.03
2019-04-01T05:48:17.807Z,99162.95
2019-04-01T05:50:21.659Z,99157.13
2019-04-01T05:52:26.434Z,99161.02
2019-04-01T05:54:31.322Z,99165.43
2019-04-01T05:56:35.198Z,99165.90
2019-04-01T05:58:39.025Z,99166.69
2019-04-01T06:00:56.169Z,99170.87
2019-04-01T06:02:59.973Z,99165.41
2019-04-01T06:05:06.527Z,99170.86
2019-04-01T06:07:10.466Z,99165.36
2019-04-01T06:09:14.350Z,99164.78
2019-04-01T06:11:18.246Z,99172.94
2019-04-01T06:13:22.253Z,99171.39
2019-04-01T06:15:27.172Z,99173.21
2019-04-01T06:17:31.186Z,99172.48
2019-04-01T06:19:35.364Z,99173.13
2019-04-01T06:21:39.203Z,99175.19
2019-04-01T06:23:43.050Z,99179.16
2019-04-01T06:25:46.850Z,99177.37
2019-04-01T06:27:51.861Z,99171.34
2019-04-01T06:29:59.159Z,99177.78
2019-04-01T06:32:01.862Z,99176.83
2019-04-01T06:34:05.923Z,99170.78
2019-04-01T06:36:09.819Z,99167.30
2019-04-01T06:38:13.898Z,99167.36
2019-04-01T06:40:17.992Z,99166.34
2019-04-01T06:42:22.795Z,99166.91
2019-04-01T06:44:26.614Z,99160.38
2019-04-01T06:46:30.465Z,99165.28
2019-04-01T06:48:34.311Z,99165.61
2019-04-01T06:50:39.465Z,99158.51
2019-04-01T06:52:43.323Z,99160.78
2019-04-01T06:54:49.172Z,99153.24
2019-04-01T06:56:53.070Z,99157.34
2019-04-01T06:58:56.989Z,99150.45
2019-04-01T07:01:02.035Z,99151.66
2019-04-01T07:03:05.917Z,99138.66
2019-04-01T07:05:12.550Z,99145.73
2019-04-01T07:07:19.091Z,99146.98
2019-04-01T07:09:21.473Z,99141.59
2019-04-01T07:11:25.386Z,99142.66
2019-04-01T07:13:29.223Z,99146.13
2019-04-01T07:15:34.045Z,99137.83
2019-04-01T07:17:37.957Z,99126.31
2019-04-01T07:19:41.861Z,99123.14
2019-04-01T07:21:45.770Z,99117.34
2019-04-01T07:23:49.692Z,99109.80
2019-04-01T07:25:53.585Z,99104.69
2019-04-01T07:27:57.488Z,99101.69
2019-04-01T07:30:02.380Z,99108.83
2019-04-01T07:32:06.223Z,99094.23
2019-04-01T07:34:10.107Z,99094.23
2019-04-01T07:36:13.934Z,99098.52
2019-04-01T07:38:19.806Z,99089.78
2019-04-01T07:40:23.614Z,99097.29
2019-04-01T07:42:27.614Z,99091.88
2019-04-01T07:44:32.533Z,99091.12
2019-04-01T07:46:37.283Z,99090.68
2019-04-01T07:48:41.239Z,99089.87
2019-04-01T07:50:45.260Z,99089.81
2019-04-01T07:52:50.175Z,99083.56
2019-04-01T07:54:55.017Z,99090.83
2019-04-01T07:56:58.936Z,99090.19
2019-04-01T07:59:02.837Z,99089.02
2019-04-01T08:01:06.734Z,99082.73
2019-04-01T08:03:10.647Z,99087.09
2019-04-01T08:05:16.763Z,99079.80
2019-04-01T08:07:20.579Z,99080.77
2019-04-01T08:09:25.426Z,99077.30
2019-04-01T08:11:29.351Z,99079.39
2019-04-01T08:13:33.180Z,99074.02
2019-04-01T08:15:37.018Z,99080.59
2019-04-01T08:17:40.760Z,99079.93
2019-04-01T08:19:44.571Z,99080.55
2019-04-01T08:21:52.127Z,99080.11
2019-04-01T08:23:54.175Z,99079.26
2019-04-01T08:25:57.998Z,99079.20
2019-04-01T08:28:01.911Z,99084.02
2019-04-01T08:30:08.690Z,99078.34
2019-04-01T08:32:14.147Z,99072.91
2019-04-01T08:34:18.230Z,99070.33
2019-04-01T08:36:23.136Z,99067.91
2019-04-01T08:38:28.281Z,99070.90
2019-04-01T08:40:33.020Z,99061.77
2019-04-01T08:42:36.982Z,99063.09
2019-04-01T08:44:40.994Z,99064.80
2019-04-01T08:46:44.918Z,99062.18
2019-04-01T08:48:49.427Z,99061.88
2019-04-01T08:50:53.753Z,99059.71
2019-04-01T08:52:58.516Z,99049.88
2019-04-01T08:55:02.423Z,99049.73
2019-04-01T08:57:07.398Z,99052.80
2019-04-01T08:59:11.163Z,99051.22
2019-04-01T09:01:15.262Z,99053.70
2019-04-01T09:03:19.076Z,99056.35
2019-04-01T09:05:22.889Z,99047.60
2019-04-01T09:07:26.716Z,99043.04
2019-04-01T09:09:31.948Z,99045.94
2019-04-01T09:11:38.392Z,99043.38
2019-04-01T09:13:41.942Z,99038.17
2019-04-01T09:15:45.860Z,99049.61
2019-04-01T09:17:49.765Z,99044.05
2019-04-01T09:19:53.598Z,99044.77
2019-04-01T09:21:57.426Z,99042.67
2019-04-01T09:24:01.299Z,99043.64
2019-04-01T09:26:05.347Z,99029.62
2019-04-01T09:28:09.187Z,99033.36
2019-04-01T09:30:18.532Z,99029.19
2019-04-01T09:32:20.971Z,99034.66
2019-04-01T09:34:24.726Z,99024.65
2019-04-01T09:36:28.441Z,99026.14
2019-04-01T09:38:32.250Z,99025.36
2019-04-01T09:40:36.121Z,99028.19
2019-04-01T09:42:39.941Z,99025.17
2019-04-01T09:44:43.739Z,99026.17
2019-04-01T09:46:49.074Z,99024.72
2019-04-01T09:48:52.992Z,99017.16
2019-04-01T09:50:56.742Z,99016.52
2019-04-01T09:53:00.502Z,99021.98
2019-04-01T09:55:06.272Z,99019.73
2019-04-01T09:57:17.392Z,99013.48
2019-04-01T09:59:15.670Z,99017.86
2019-04-01T10:01:19.394Z,99008.11
2019-04-01T10:03:23.184Z,99012.37
2019-04-01T10:05:26.932Z,99007.15
2019-04-01T10:07:30.791Z,99003.31
2019-04-01T10:09:34.581Z,99008.48
2019-04-01T10:11:38.303Z,99004.30
2019-04-01T10:13:42.019Z,99004.05
2019-04-01T10:15:45.757Z,98999.80
2019-04-01T10:17:49.476Z,99003.97
2019-04-01T10:19:53.218Z,98998.44
2019-04-01T10:21:56.950Z,98990.91
2019-04-01T10:24:00.755Z,98993.19
2019-04-01T10:26:04.629Z,98993.91
2019-04-01T10:28:08.362Z,98991.83
2019-04-01T10:30:13.057Z,98985.73
2019-04-01T10:32:16.779Z,98986.13
2019-04-01T10:34:20.521Z,98978.59
2019-04-01T10:36:24.258Z,98982.44
2019-04-01T10:38:27.993Z,98977.35
2019-04-01T10:40:31.847Z,98972.46
2019-04-01T10:42:35.700Z,98976.48
2019-04-01T10:44:39.442Z,98964.41
2019-04-01T10:46:43.193Z,98968.25
2019-04-01T10:48:46.892Z,98954.23
2019-04-01T10:50:50.648Z,98963.55
2019-04-01T10:52:54.424Z,98962.63
2019-04-01T10:54:58.121Z,98952.66
2019-04-01T10:57:02.205Z,98953.22
2019-04-01T10:59:06.012Z,98949.89
2019-04-01T11:01:09.886Z,98944.28
2019-04-01T11:03:13.710Z,98945.41
2019-04-01T11:05:17.488Z,98940.98
2019-04-01T11:07:21.246Z,98943.26
2019-04-01T11:09:37.768Z,98934.17
2019-04-01T11:11:30.506Z,98922.20
2019-04-01T11:13:34.357Z,98932.91
2019-04-01T11:15:38.066Z,98928.45
2019-04-01T11:17:41.826Z,98920.58
2019-04-01T11:19:45.649Z,98924.44
2019-04-01T11:21:49.363Z,98924.59
2019-04-01T11:23:53.161Z,98922.17
2019-04-01T11:25:56.901Z,98924.25
2019-04-01T11:28:00.653Z,98912.86
2019-04-01T11:30:05.309Z,98913.77
2019-04-01T11:32:09.512Z,98914.31
2019-04-01T11:34:14.697Z,98909.13
2019-04-01T11:36:18.520Z,98904.65
2019-04-01T11:38:22.335Z,98908.48
2019-04-01T11:40:26.176Z,98898.11
2019-04-01T11:42:29.853Z,98897.68
2019-04-01T11:44:33.641Z,98898.39
2019-04-01T11:46:37.320Z,98888.83
2019-04-01T11:48:41.205Z,98889.59
2019-04-01T11:50:47.723Z,98884.23
2019-04-01T11:52:50.444Z,98873.59
2019-04-01T11:54:54.245Z,98867.69
2019-04-01T11:56:57.981Z,98871.17
2019-04-01T11:59:01.724Z,98877.61
2019-04-01T12:01:05.515Z,98868.20
2019-04-01T12:03:09.403Z,98860.20
2019-04-01T12:05:13.476Z,98863.70
2019-04-01T12:07:17.206Z,98858.20
2019-04-01T12:09:21.082Z,98853.38
2019-04-01T12:11:24.822Z,98850.01
2019-04-01T12:13:29.021Z,98851.67
2019-04-01T12:15:33.103Z,98842.26
2019-04-01T12:17:36.920Z,98840.41
2019-04-01T12:19:40.688Z,98832.70
2019-04-01T12:21:44.508Z,98834.63
2019-04-01T12:23:48.240Z,98819.37
2019-04-01T12:25:51.994Z,98825.77
2019-04-01T12:27:55.746Z,98820.67
2019-04-01T12:29:59.496Z,98822.20
2019-04-01T12:32:03.314Z,98816.64
2019-04-01T12:34:07.043Z,98815.47
2019-04-01T12:36:11.824Z,98808.27
2019-04-01T12:38:16.492Z,98803.27
2019-04-01T12:40:20.381Z,98804.45
2019-04-01T12:42:24.183Z,98800.19
2019-04-01T12:44:27.908Z,98789.66
2019-04-01T12:46:31.644Z,98793.36
2019-04-01T12:48:35.371Z,98793.97
2019-04-01T12:50:40.145Z,98791.02
2019-04-01T12:52:43.865Z,98784.81
2019-04-01T12:54:47.595Z,98785.94
2019-04-01T12:56:51.359Z,98779.98
2019-04-01T12:58:55.097Z,98775.27
2019-04-01T13:01:01.062Z,98766.09
2019-04-01T13:03:04.408Z,98761.54
2019-04-01T13:05:08.379Z,98761.81
2019-04-01T13:07:12.121Z,98757.17
2019-04-01T13:09:15.906Z,98761.64
2019-04-01T13:11:19.852Z,98745.45
2019-04-01T13:13:23.518Z,98748.42
2019-04-01T13:15:27.323Z,98746.02
2019-04-01T13:17:31.116Z,98749.19
2019-04-01T13:19:34.829Z,98740.77
2019-04-01T13:21:39.924Z,98733.01
2019-04-01T13:23:43.760Z,98727.68
2019-04-01T13:25:47.486Z,98729.06
2019-04-01T13:27:51.319Z,98724.32
2019-04-01T13:29:55.057Z,98722.34
2019-04-01T13:32:00.564Z,98720.84
2019-04-01T13:34:04.370Z,98715.15
2019-04-01T13:36:08.136Z,98721.77
2019-04-01T13:38:11.907Z,98716.91
2019-04-01T13:40:19.303Z,98716.22
2019-04-01T13:42:24.698Z,98710.68
2019-04-01T13:44:36.837Z,98709.60
2019-04-01T13:46:32.130Z,98715.64
2019-04-01T13:48:35.857Z,98703.09
2019-04-01T13:50:39.572Z,98699.65
2019-04-01T13:52:43.320Z,98702.05
2019-04-01T13:54:47.057Z,98701.91
2019-04-01T13:56:50.803Z,98692.30
2019-04-01T13:58:54.633Z,98687.75
2019-04-01T14:00:58.344Z,98684.08
2019-04-01T14:03:02.075Z,98679.80
2019-04-01T14:05:06.784Z,98678.44
2019-04-01T14:07:10.533Z,98680.70
2019-04-01T14:09:14.323Z,98678.02
2019-04-01T14:11:18.062Z,98674.68
2019-04-01T14:13:21.787Z,98678.23
2019-04-01T14:15:25.530Z,98673.87
2019-04-01T14:17:29.279Z,98666.89
2019-04-01T14:19:33.015Z,98664.27
2019-04-01T14:21:36.757Z,98667.27
2019-04-01T14:23:40.481Z,98658.14
2019-04-01T14:25:44.199Z,98655.50
2019-04-01T14:27:48.006Z,98656.44
2019-04-01T14:29:51.750Z,98653.84
2019-04-01T14:31:55.506Z,98656.47
2019-04-01T14:33:59.556Z,98654.88
2019-04-01T14:36:04.674Z,98648.12
2019-04-01T14:38:08.628Z,98655.38
2019-04-01T14:40:12.518Z,98651.52
2019-04-01T14:42:16.258Z,98656.09
2019-04-01T14:44:19.987Z,98646.55
2019-04-01T14:46:23.722Z,98643.48
2019-04-01T14:48:27.536Z,98641.58
2019-04-01T14:50:31.271Z,98647.75
2019-04-01T14:52:35.145Z,98654.64
2019-04-01T14:54:38.806Z,98643.64
2019-04-01T14:56:42.623Z,98646.23
2019-04-01T14:58:46.353Z,98637.85
2019-04-01T15:00:50.159Z,98642.41
2019-04-01T15:02:53.983Z,98647.06
2019-04-01T15:04:57.792Z,98640.52
2019-04-01T15:07:01.535Z,98639.41
2019-04-01T15:09:08.371Z,98636.86
2019-04-01T15:11:12.692Z,98638.70
2019-04-01T15:13:16.535Z,98633.52
2019-04-01T15:15:20.407Z,98638.12
2019-04-01T15:17:24.140Z,98631.00
2019-04-01T15:19:27.927Z,98626.03
2019-04-01T15:21:31.668Z,98634.53
2019-04-01T15:23:35.467Z,98634.48
2019-04-01T15:25:39.226Z,98623.41
2019-04-01T15:27:42.985Z,98630.81
2019-04-01T15:29:46.736Z,98619.33
2019-04-01T15:31:50.464Z,98619.27
2019-04-01T15:33:54.196Z,98615.75
2019-04-01T15:35:57.961Z,98622.80
2019-04-01T15:38:01.703Z,98616.53
2019-04-01T15:40:07.326Z,98617.53
2019-04-01T15:42:11.035Z,98613.94
2019-04-01T15:44:14.910Z,98610.89
2019-04-01T15:46:18.635Z,98623.32
2019-04-01T15:48:22.431Z,98601.25
2019-04-01T15:50:28.669Z,98611.88
2019-04-01T15:52:31.699Z,98607.80
2019-04-01T15:54:35.426Z,98607.80
2019-04-01T15:56:41.849Z,98606.80
2019-04-01T15:58:44.699Z,98610.02
2019-04-01T16:00:48.514Z,98610.58
2019-04-01T16:02:52.332Z,98605.65
2019-04-01T16:04:56.064Z,98607.61
2019-04-01T16:07:00.364Z,98609.31
2019-04-01T16:09:06.341Z,98605.05
2019-04-01T16:11:10.091Z,98604.67
2019-04-01T16:13:14.320Z,98604.00
2019-04-01T16:15:18.335Z,98598.45
2019-04-01T16:17:22.173Z,98603.20
2019-04-01T16:19:25.977Z,98603.45
2019-04-01T16:21:31.412Z,98605.67
2019-04-01T16:23:35.280Z,98596.03
2019-04-01T16:25:39.067Z,98602.84
2019-04-01T16:27:43.229Z,98599.46
2019-04-01T16:29:47.009Z,98593.06
2019-04-01T16:31:50.735Z,98596.84
2019-04-01T16:33:54.477Z,98594.50
2019-04-01T16:35:58.320Z,98598.56
2019-04-01T16:38:02.062Z,98598.50
2019-04-01T16:40:06.556Z,98595.98
2019-04-01T16:42:10.301Z,98597.06
2019-04-01T16:44:15.010Z,98600.47
2019-04-01T16:46:18.866Z,98594.67
2019-04-01T16:48:22.613Z,98597.05
2019-04-01T16:50:28.574Z,98598.88
2019-04-01T16:52:31.985Z,98592.28
2019-04-01T16:54:37.547Z,98597.61
2019-04-01T16:56:41.432Z,98597.78
2019-04-01T16:58:45.244Z,98595.63
2019-04-01T17:00:48.996Z,98599.02
2019-04-01T17:02:52.739Z,98596.84
2019-04-01T17:04:56.596Z,98593.42
2019-04-01T17:07:00.412Z,98600.31
2019-04-01T17:09:06.050Z,98607.22
2019-04-01T17:11:09.913Z,98608.72
2019-04-01T17:13:13.767Z,98608.14
2019-04-01T17:15:17.577Z,98609.77
2019-04-01T17:17:21.399Z,98606.37
2019-04-01T17:19:27.687Z,98603.23
2019-04-01T17:21:30.605Z,98609.17
2019-04-01T17:23:34.418Z,98612.39
2019-04-01T17:25:38.154Z,98611.14
2019-04-01T17:27:42.033Z,98611.87
2019-04-01T17:29:47.199Z,98614.52
2019-04-01T17:31:50.933Z,98615.23
2019-04-01T17:33:54.721Z,98615.66
2019-04-01T17:35:58.452Z,98619.92
2019-04-01T17:38:02.200Z,98623.97
2019-04-01T17:40:08.470Z,98629.03
2019-04-01T17:42:12.286Z,98624.97
2019-04-01T17:44:16.099Z,98623.08
2019-04-01T17:46:19.909Z,98625.66
2019-04-01T17:48:23.738Z,98630.14
2019-04-01T17:50:28.947Z,98623.62
2019-04-01T17:52:32.833Z,98628.92
2019-04-01T17:54:39.889Z,98630.64
2019-04-01T17:56:42.012Z,98636.77
2019-04-01T17:58:45.813Z,98629.16
2019-04-01T18:00:56.118Z,98633.66
2019-04-01T18:02:59.837Z,98627.13
2019-04-01T18:05:03.646Z,98629.09
2019-04-01T18:07:07.775Z,98625.87
2019-04-01T18:09:11.611Z,98624.27
2019-04-01T18:11:17.349Z,98622.91
2019-04-01T18:13:22.072Z,98626.02
2019-04-01T18:15:25.945Z,98629.37
2019-04-01T18:17:29.668Z,98626.17
2019-04-01T18:19:33.397Z,98622.94
2019-04-01T18:21:38.253Z,98627.94
2019-04-01T18:23:42.113Z,98634.34
2019-04-01T18:25:45.924Z,98628.06
2019-04-01T18:27:49.660Z,98630.84
2019-04-01T18:29:53.403Z,98633.36
2019-04-01T18:31:58.986Z,98636.73
2019-04-01T18:34:02.587Z,98634.58
2019-04-01T18:36:06.423Z,98634.63
2019-04-01T18:38:10.231Z,98629.98
2019-04-01T18:40:14.214Z,98638.80
2019-04-01T18:42:17.974Z,98638.56
2019-04-01T18:44:21.799Z,98642.46
2019-04-01T18:46:25.527Z,98651.83
2019-04-01T18:48:29.272Z,98649.39
2019-04-01T18:50:33.020Z,98653.55
2019-04-01T18:52:38.120Z,98654.69
2019-04-01T18:54:42.233Z,98659.37
2019-04-01T18:56:47.671Z,98660.78
2019-04-01T18:58:51.415Z,98654.76
2019-04-01T19:00:55.148Z,98655.33
2019-04-01T19:02:58.960Z,98660.82
2019-04-01T19:05:02.768Z,98665.52
2019-04-01T19:07:06.567Z,98662.52
2019-04-01T19:09:11.745Z,98658.95
2019-04-01T19:11:16.007Z,98669.11
2019-04-01T19:13:19.857Z,98670.21
2019-04-01T19:15:24.536Z,98664.47
2019-04-01T19:17:28.923Z,98671.34
2019-04-01T19:19:32.656Z,98667.23
2019-04-01T19:21:37.163Z,98665.32
2019-04-01T19:23:41.171Z,98671.62
2019-04-01T19:25:44.899Z,98666.96
2019-04-01T19:27:49.221Z,98671.91
2019-04-01T19:29:53.754Z,98670.83
2019-04-01T19:31:57.499Z,98668.63
2019-04-01T19:34:01.230Z,98667.81
2019-04-01T19:36:05.115Z,98672.47
2019-04-01T19:38:08.928Z,98676.33
2019-04-01T19:40:13.299Z,98670.55
2019-04-01T19:42:17.929Z,98680.97
2019-04-01T19:44:21.941Z,98678.22
2019-04-01T19:46:25.688Z,98673.78
2019-04-01T19:48:29.489Z,98683.66
2019-04-01T19:50:33.465Z,98682.52
2019-04-01T19:52:37.296Z,98681.14
2019-04-01T19:54:41.099Z,98682.78
2019-04-01T19:56:44.817Z,98686.05
2019-04-01T19:58:48.544Z,98686.56
2019-04-01T20:00:52.363Z,98688.46
2019-04-01T20:02:56.575Z,98685.16
2019-04-01T20:05:00.496Z,98690.89
2019-04-01T20:07:04.380Z,98688.39
2019-04-01T20:09:08.790Z,98686.20
2019-04-01T20:11:12.532Z,98690.54
2019-04-01T20:13:16.249Z,98690.25
2019-04-01T20:15:20.547Z,98687.20
2019-04-01T20:17:24.363Z,98685.80
2019-04-01T20:19:28.099Z,98682.22
2019-04-01T20:21:31.821Z,98683.85
2019-04-01T20:23:35.580Z,98685.44
2019-04-01T20:25:39.347Z,98676.41
2019-04-01T20:27:44.147Z,98682.13
2019-04-01T20:29:47.980Z,98683.45
2019-04-01T20:31:51.871Z,98677.66
2019-04-01T20:33:55.590Z,98677.04
2019-04-01T20:35:59.360Z,98678.36
2019-04-01T20:38:03.116Z,98676.41
2019-04-01T20:40:08.825Z,98673.66
2019-04-01T20:42:12.628Z,98673.35
2019-04-01T20:44:16.363Z,98670.58
2019-04-01T20:46:20.129Z,98682.33
2019-04-01T20:48:23.879Z,98679.88
2019-04-01T20:50:28.181Z,98673.83
2019-04-01T20:52:32.166Z,98679.52
2019-04-01T20:54:35.897Z,98679.47
2019-04-01T20:56:39.793Z,98668.77
2019-04-01T20:58:43.530Z,98669.80
2019-04-01T21:00:47.334Z,98671.66
2019-04-01T21:02:51.080Z,98667.25
2019-04-01T21:04:55.136Z,98662.30
2019-04-01T21:06:59.673Z,98661.73
2019-04-01T21:09:06.589Z,98662.25
2019-04-01T21:11:11.165Z,98657.31
2019-04-01T21:13:16.039Z,98655.37
2019-04-01T21:15:19.843Z,98651.24
2019-04-01T21:17:23.991Z,98650.34
2019-04-01T21:19:28.094Z,98652.48
2019-04-01T21:21:31.829Z,98642.31
2019-04-01T21:23:36.085Z,98643.09
2019-04-01T21:25:40.082Z,98644.94
2019-04-01T21:27:43.816Z,98647.34
2019-04-01T21:29:47.560Z,98648.98
2019-04-01T21:31:51.293Z,98648.12
2019-04-01T21:33:55.024Z,98640.73
2019-04-01T21:35:58.839Z,98643.44
2019-04-01T21:38:03.164Z,98634.69
2019-04-01T21:40:08.195Z,98632.16
2019-04-01T21:42:11.940Z,98631.54
2019-04-01T21:44:15.686Z,98634.22
2019-04-01T21:46:19.554Z,98634.42
2019-04-01T21:48:23.302Z,98633.59
2019-04-01T21:50:29.549Z,98632.17
2019-04-01T21:52:33.168Z,98632.14
2019-04-01T21:54:37.692Z,98627.45
2019-04-01T21:56:41.430Z,98630.98
2019-04-01T21:58:45.162Z,98630.69
2019-04-01T22:00:52.013Z,98626.56
2019-04-01T22:02:55.750Z,98627.89
2019-04-01T22:04:59.481Z,98618.02
2019-04-01T22:07:03.294Z,98619.34
2019-04-01T22:09:09.754Z,98621.54
2019-04-01T22:11:13.490Z,98618.48
2019-04-01T22:13:17.235Z,98625.80
2019-04-01T22:15:22.207Z,98618.38
2019-04-01T22:17:26.134Z,98619.18
2019-04-01T22:19:29.889Z,98620.48
2019-04-01T22:21:34.702Z,98614.42
2019-04-01T22:23:38.429Z,98615.72
2019-04-01T22:25:42.160Z,98611.83
2019-04-01T22:27:45.894Z,98613.72
2019-04-01T22:29:49.693Z,98614.72
2019-04-01T22:31:53.408Z,98608.66
2019-04-01T22:33:57.144Z,98609.42
2019-04-01T22:36:00.933Z,98609.38
2019-04-01T22:38:06.211Z,98611.47
2019-04-01T22:40:10.399Z,98601.09
2019-04-01T22:42:14.172Z,98600.45
2019-04-01T22:44:17.911Z,98596.59
2019-04-01T22:46:21.619Z,98598.45
2019-04-01T22:48:25.350Z,98586.64
2019-04-01T22:50:29.158Z,98594.73
2019-04-01T22:52:32.865Z,98593.82
2019-04-01T22:54:36.589Z,98591.55
2019-04-01T22:56:40.318Z,98588.48
2019-04-01T22:58:44.024Z,98590.82
2019-04-01T23:00:47.771Z,98587.48
2019-04-01T23:02:51.502Z,98586.04
2019-04-01T23:04:55.221Z,98584.52
2019-04-01T23:06:58.937Z,98586.33
2019-04-01T23:09:03.054Z,98584.39
2019-04-01T23:11:06.763Z,98580.27
2019-04-01T23:13:10.505Z,98577.98
2019-04-01T23:15:15.317Z,98582.81
2019-04-01T23:17:19.515Z,98578.91
2019-04-01T23:19:23.329Z,98578.55
2019-04-01T23:21:27.056Z,98571.66
2019-04-01T23:23:30.783Z,98571.88
2019-04-01T23:25:34.522Z,98563.66
2019-04-01T23:27:38.258Z,98565.20
2019-04-01T23:29:41.986Z,98566.98
2019-04-01T23:31:46.253Z,98562.25
2019-04-01T23:33:50.857Z,98559.73
2019-04-01T23:35:54.592Z,98563.19
2019-04-01T23:37:58.313Z,98562.27
2019-04-01T23:40:02.383Z,98561.11
2019-04-01T23:42:07.049Z,98560.75
2019-04-01T23:44:10.767Z,98568.56
2019-04-01T23:46:14.506Z,98560.61
2019-04-01T23:48:18.242Z,98564.89
2019-04-01T23:50:21.976Z,98567.20
2019-04-01T23:52:25.713Z,98563.23
2019-04-01T23:54:31.031Z,98561.03
2019-04-01T23:56:34.876Z,98561.45
2019-04-01T23:58:38.605Z,98565.42
